sensor_id;sensor_type;location;lat;lon;timestamp;temperature;humidity
51007;DHT22;37034;47.886;-3.904;2023-08-17T00:01:33;20.50;82.90
51007;DHT22;37034;47.886;-3.904;2023-08-17T00:03:59;20.50;83.00
51007;DHT22;37034;47.886;-3.904;2023-08-17T00:06:25;20.50;83.00
51007;DHT22;37034;47.886;-3.904;2023-08-17T00:08:51;20.50;83.20
51007;DHT22;37034;47.886;-3.904;2023-08-17T00:11:16;20.50;83.20
51007;DHT22;37034;47.886;-3.904;2023-08-17T00:13:42;20.50;83.20
51007;DHT22;37034;47.886;-3.904;2023-08-17T00:16:08;20.50;83.30
51007;DHT22;37034;47.886;-3.904;2023-08-17T00:18:34;20.50;83.30
51007;DHT22;37034;47.886;-3.904;2023-08-17T00:21:00;20.50;83.40
51007;DHT22;37034;47.886;-3.904;2023-08-17T00:23:25;20.50;83.40
51007;DHT22;37034;47.886;-3.904;2023-08-17T00:25:51;20.50;83.50
51007;DHT22;37034;47.886;-3.904;2023-08-17T00:28:17;20.50;83.80
51007;DHT22;37034;47.886;-3.904;2023-08-17T00:30:42;20.50;83.90
51007;DHT22;37034;47.886;-3.904;2023-08-17T00:33:08;20.40;84.00
51007;DHT22;37034;47.886;-3.904;2023-08-17T00:35:34;20.40;84.10
51007;DHT22;37034;47.886;-3.904;2023-08-17T00:38:00;20.40;84.00
51007;DHT22;37034;47.886;-3.904;2023-08-17T00:40:25;20.40;84.20
51007;DHT22;37034;47.886;-3.904;2023-08-17T00:42:51;20.40;84.50
51007;DHT22;37034;47.886;-3.904;2023-08-17T00:45:18;20.40;84.50
51007;DHT22;37034;47.886;-3.904;2023-08-17T00:47:44;20.30;84.80
51007;DHT22;37034;47.886;-3.904;2023-08-17T00:50:11;20.30;84.70
51007;DHT22;37034;47.886;-3.904;2023-08-17T00:52:37;20.30;85.00
51007;DHT22;37034;47.886;-3.904;2023-08-17T00:55:03;20.30;84.90
51007;DHT22;37034;47.886;-3.904;2023-08-17T00:57:31;20.30;85.80
51007;DHT22;37034;47.886;-3.904;2023-08-17T00:59:57;20.20;85.20
51007;DHT22;37034;47.886;-3.904;2023-08-17T01:02:24;20.20;85.30
51007;DHT22;37034;47.886;-3.904;2023-08-17T01:04:50;20.20;85.80
51007;DHT22;37034;47.886;-3.904;2023-08-17T01:07:15;20.20;85.90
51007;DHT22;37034;47.886;-3.904;2023-08-17T01:09:41;20.20;86.10
51007;DHT22;37034;47.886;-3.904;2023-08-17T01:12:31;20.20;86.00
51007;DHT22;37034;47.886;-3.904;2023-08-17T01:15:15;20.10;86.90
51007;DHT22;37034;47.886;-3.904;2023-08-17T01:20:45;20.10;87.00
51007;DHT22;37034;47.886;-3.904;2023-08-17T01:23:11;20.10;86.60
51007;DHT22;37034;47.886;-3.904;2023-08-17T01:25:37;20.10;86.80
51007;DHT22;37034;47.886;-3.904;2023-08-17T01:28:03;20.10;86.90
51007;DHT22;37034;47.886;-3.904;2023-08-17T01:30:37;20.10;87.00
51007;DHT22;37034;47.886;-3.904;2023-08-17T01:33:07;20.10;87.60
51007;DHT22;37034;47.886;-3.904;2023-08-17T01:35:57;20.10;87.30
51007;DHT22;37034;47.886;-3.904;2023-08-17T01:38:28;20.20;88.10
51007;DHT22;37034;47.886;-3.904;2023-08-17T01:40:55;20.10;87.40
51007;DHT22;37034;47.886;-3.904;2023-08-17T01:43:22;20.20;87.60
51007;DHT22;37034;47.886;-3.904;2023-08-17T01:45:48;20.10;87.60
51007;DHT22;37034;47.886;-3.904;2023-08-17T01:48:14;20.10;87.70
51007;DHT22;37034;47.886;-3.904;2023-08-17T01:50:39;20.10;87.90
51007;DHT22;37034;47.886;-3.904;2023-08-17T01:53:05;20.10;88.10
51007;DHT22;37034;47.886;-3.904;2023-08-17T01:55:30;20.10;88.00
51007;DHT22;37034;47.886;-3.904;2023-08-17T01:57:56;20.10;88.00
51007;DHT22;37034;47.886;-3.904;2023-08-17T02:00:22;20.10;88.10
51007;DHT22;37034;47.886;-3.904;2023-08-17T02:02:47;20.10;88.30
51007;DHT22;37034;47.886;-3.904;2023-08-17T02:05:13;20.10;88.50
51007;DHT22;37034;47.886;-3.904;2023-08-17T02:07:39;20.10;88.50
51007;DHT22;37034;47.886;-3.904;2023-08-17T02:10:05;20.10;88.70
51007;DHT22;37034;47.886;-3.904;2023-08-17T02:12:30;20.10;88.90
51007;DHT22;37034;47.886;-3.904;2023-08-17T02:14:56;20.00;88.70
51007;DHT22;37034;47.886;-3.904;2023-08-17T02:17:22;20.10;88.80
51007;DHT22;37034;47.886;-3.904;2023-08-17T02:19:48;20.00;88.90
51007;DHT22;37034;47.886;-3.904;2023-08-17T02:22:14;20.10;89.30
51007;DHT22;37034;47.886;-3.904;2023-08-17T02:24:40;20.00;89.20
51007;DHT22;37034;47.886;-3.904;2023-08-17T02:27:06;20.00;89.10
51007;DHT22;37034;47.886;-3.904;2023-08-17T02:29:32;20.00;89.30
51007;DHT22;37034;47.886;-3.904;2023-08-17T02:31:58;20.00;89.30
51007;DHT22;37034;47.886;-3.904;2023-08-17T02:34:23;20.00;89.40
51007;DHT22;37034;47.886;-3.904;2023-08-17T02:36:49;19.90;89.40
51007;DHT22;37034;47.886;-3.904;2023-08-17T02:39:15;19.90;89.50
51007;DHT22;37034;47.886;-3.904;2023-08-17T02:41:40;20.00;89.70
51007;DHT22;37034;47.886;-3.904;2023-08-17T02:44:06;20.00;89.60
51007;DHT22;37034;47.886;-3.904;2023-08-17T02:46:32;19.90;89.70
51007;DHT22;37034;47.886;-3.904;2023-08-17T02:48:57;19.90;89.70
51007;DHT22;37034;47.886;-3.904;2023-08-17T02:51:23;19.90;89.80
51007;DHT22;37034;47.886;-3.904;2023-08-17T02:53:49;20.00;89.90
51007;DHT22;37034;47.886;-3.904;2023-08-17T02:56:14;19.90;90.00
51007;DHT22;37034;47.886;-3.904;2023-08-17T02:58:40;19.90;90.00
51007;DHT22;37034;47.886;-3.904;2023-08-17T03:01:09;19.90;90.00
51007;DHT22;37034;47.886;-3.904;2023-08-17T03:03:35;19.90;90.00
51007;DHT22;37034;47.886;-3.904;2023-08-17T03:06:02;19.90;90.10
51007;DHT22;37034;47.886;-3.904;2023-08-17T03:08:28;19.90;90.00
51007;DHT22;37034;47.886;-3.904;2023-08-17T03:10:53;19.90;90.10
51007;DHT22;37034;47.886;-3.904;2023-08-17T03:13:19;19.90;90.20
51007;DHT22;37034;47.886;-3.904;2023-08-17T03:15:46;19.90;90.10
51007;DHT22;37034;47.886;-3.904;2023-08-17T03:18:11;19.90;90.10
51007;DHT22;37034;47.886;-3.904;2023-08-17T03:20:37;19.90;90.20
51007;DHT22;37034;47.886;-3.904;2023-08-17T03:23:03;19.90;90.30
51007;DHT22;37034;47.886;-3.904;2023-08-17T03:25:32;19.90;90.30
51007;DHT22;37034;47.886;-3.904;2023-08-17T03:27:58;20.00;90.30
51007;DHT22;37034;47.886;-3.904;2023-08-17T03:30:24;20.00;90.30
51007;DHT22;37034;47.886;-3.904;2023-08-17T03:32:50;20.00;90.30
51007;DHT22;37034;47.886;-3.904;2023-08-17T03:35:15;19.90;90.30
51007;DHT22;37034;47.886;-3.904;2023-08-17T03:37:41;19.90;90.50
51007;DHT22;37034;47.886;-3.904;2023-08-17T03:40:07;20.00;90.40
51007;DHT22;37034;47.886;-3.904;2023-08-17T03:42:33;20.00;90.40
51007;DHT22;37034;47.886;-3.904;2023-08-17T03:44:59;20.00;90.40
51007;DHT22;37034;47.886;-3.904;2023-08-17T03:47:24;20.00;90.50
51007;DHT22;37034;47.886;-3.904;2023-08-17T03:49:51;20.00;90.40
51007;DHT22;37034;47.886;-3.904;2023-08-17T03:52:17;20.00;90.50
51007;DHT22;37034;47.886;-3.904;2023-08-17T03:54:42;20.00;90.50
51007;DHT22;37034;47.886;-3.904;2023-08-17T03:57:09;20.00;90.50
51007;DHT22;37034;47.886;-3.904;2023-08-17T03:59:35;20.00;90.50
51007;DHT22;37034;47.886;-3.904;2023-08-17T04:02:00;20.00;90.60
51007;DHT22;37034;47.886;-3.904;2023-08-17T04:04:26;20.00;90.60
51007;DHT22;37034;47.886;-3.904;2023-08-17T04:06:52;20.00;90.60
51007;DHT22;37034;47.886;-3.904;2023-08-17T04:09:18;20.00;90.90
51007;DHT22;37034;47.886;-3.904;2023-08-17T04:11:44;20.00;90.80
51007;DHT22;37034;47.886;-3.904;2023-08-17T04:14:10;20.00;90.60
51007;DHT22;37034;47.886;-3.904;2023-08-17T04:16:35;20.00;90.80
51007;DHT22;37034;47.886;-3.904;2023-08-17T04:19:01;20.00;90.60
51007;DHT22;37034;47.886;-3.904;2023-08-17T04:21:27;20.00;90.70
51007;DHT22;37034;47.886;-3.904;2023-08-17T04:23:52;20.00;90.80
51007;DHT22;37034;47.886;-3.904;2023-08-17T04:26:18;19.90;90.80
51007;DHT22;37034;47.886;-3.904;2023-08-17T04:28:44;20.00;90.80
51007;DHT22;37034;47.886;-3.904;2023-08-17T04:31:09;20.00;90.90
51007;DHT22;37034;47.886;-3.904;2023-08-17T04:33:35;20.00;90.90
51007;DHT22;37034;47.886;-3.904;2023-08-17T04:36:00;20.00;90.90
51007;DHT22;37034;47.886;-3.904;2023-08-17T04:38:26;20.00;90.80
51007;DHT22;37034;47.886;-3.904;2023-08-17T04:40:52;20.00;90.90
51007;DHT22;37034;47.886;-3.904;2023-08-17T04:43:18;20.00;90.90
51007;DHT22;37034;47.886;-3.904;2023-08-17T04:45:43;20.00;90.90
51007;DHT22;37034;47.886;-3.904;2023-08-17T04:48:13;20.00;90.90
51007;DHT22;37034;47.886;-3.904;2023-08-17T04:50:38;20.00;91.10
51007;DHT22;37034;47.886;-3.904;2023-08-17T04:53:04;20.00;90.90
51007;DHT22;37034;47.886;-3.904;2023-08-17T04:55:30;20.00;90.90
51007;DHT22;37034;47.886;-3.904;2023-08-17T04:57:57;20.00;90.90
51007;DHT22;37034;47.886;-3.904;2023-08-17T05:00:23;20.00;91.00
51007;DHT22;37034;47.886;-3.904;2023-08-17T05:02:56;20.00;91.00
51007;DHT22;37034;47.886;-3.904;2023-08-17T05:05:22;20.00;91.00
51007;DHT22;37034;47.886;-3.904;2023-08-17T05:07:48;20.00;91.00
51007;DHT22;37034;47.886;-3.904;2023-08-17T05:10:13;20.10;91.10
51007;DHT22;37034;47.886;-3.904;2023-08-17T05:12:39;20.00;91.10
51007;DHT22;37034;47.886;-3.904;2023-08-17T05:15:05;20.10;91.10
51007;DHT22;37034;47.886;-3.904;2023-08-17T05:17:31;20.10;91.10
51007;DHT22;37034;47.886;-3.904;2023-08-17T05:19:56;20.10;91.20
51007;DHT22;37034;47.886;-3.904;2023-08-17T05:22:22;20.10;91.20
51007;DHT22;37034;47.886;-3.904;2023-08-17T05:24:47;20.10;91.20
51007;DHT22;37034;47.886;-3.904;2023-08-17T05:27:13;20.10;91.40
51007;DHT22;37034;47.886;-3.904;2023-08-17T05:29:39;20.10;91.20
51007;DHT22;37034;47.886;-3.904;2023-08-17T05:32:05;20.10;91.20
51007;DHT22;37034;47.886;-3.904;2023-08-17T05:34:31;20.10;91.20
51007;DHT22;37034;47.886;-3.904;2023-08-17T05:36:56;20.20;91.50
51007;DHT22;37034;47.886;-3.904;2023-08-17T05:39:22;20.20;91.20
51007;DHT22;37034;47.886;-3.904;2023-08-17T05:41:48;20.20;91.20
51007;DHT22;37034;47.886;-3.904;2023-08-17T05:44:13;20.20;91.30
51007;DHT22;37034;47.886;-3.904;2023-08-17T05:46:40;20.20;91.40
51007;DHT22;37034;47.886;-3.904;2023-08-17T05:49:06;20.20;91.40
51007;DHT22;37034;47.886;-3.904;2023-08-17T05:51:32;20.30;91.70
51007;DHT22;37034;47.886;-3.904;2023-08-17T05:53:58;20.30;91.50
51007;DHT22;37034;47.886;-3.904;2023-08-17T05:56:23;20.30;91.50
51007;DHT22;37034;47.886;-3.904;2023-08-17T05:58:49;20.40;91.50
51007;DHT22;37034;47.886;-3.904;2023-08-17T06:01:14;20.40;91.50
51007;DHT22;37034;47.886;-3.904;2023-08-17T06:03:40;20.40;91.50
51007;DHT22;37034;47.886;-3.904;2023-08-17T06:06:06;20.40;91.40
51007;DHT22;37034;47.886;-3.904;2023-08-17T06:08:32;20.50;91.50
51007;DHT22;37034;47.886;-3.904;2023-08-17T06:10:57;20.50;91.50
51007;DHT22;37034;47.886;-3.904;2023-08-17T06:13:23;20.60;91.50
51007;DHT22;37034;47.886;-3.904;2023-08-17T06:15:49;20.70;91.50
51007;DHT22;37034;47.886;-3.904;2023-08-17T06:18:15;20.80;91.50
51007;DHT22;37034;47.886;-3.904;2023-08-17T06:20:41;20.80;91.50
51007;DHT22;37034;47.886;-3.904;2023-08-17T06:23:06;20.90;91.50
51007;DHT22;37034;47.886;-3.904;2023-08-17T06:25:32;21.00;91.50
51007;DHT22;37034;47.886;-3.904;2023-08-17T06:27:58;21.10;91.50
51007;DHT22;37034;47.886;-3.904;2023-08-17T06:30:23;21.20;91.50
51007;DHT22;37034;47.886;-3.904;2023-08-17T06:32:52;21.30;91.40
51007;DHT22;37034;47.886;-3.904;2023-08-17T06:35:18;21.40;91.50
51007;DHT22;37034;47.886;-3.904;2023-08-17T06:37:43;21.50;91.50
51007;DHT22;37034;47.886;-3.904;2023-08-17T06:40:09;21.50;91.50
51007;DHT22;37034;47.886;-3.904;2023-08-17T06:42:35;21.60;91.40
51007;DHT22;37034;47.886;-3.904;2023-08-17T06:45:01;21.70;91.40
51007;DHT22;37034;47.886;-3.904;2023-08-17T06:47:27;21.80;91.50
51007;DHT22;37034;47.886;-3.904;2023-08-17T06:49:52;21.90;91.40
51007;DHT22;37034;47.886;-3.904;2023-08-17T06:52:18;22.00;91.40
51007;DHT22;37034;47.886;-3.904;2023-08-17T06:54:43;22.10;91.30
51007;DHT22;37034;47.886;-3.904;2023-08-17T06:57:09;22.20;91.20
51007;DHT22;37034;47.886;-3.904;2023-08-17T06:59:35;22.20;91.20
51007;DHT22;37034;47.886;-3.904;2023-08-17T07:02:00;22.30;91.30
51007;DHT22;37034;47.886;-3.904;2023-08-17T07:04:26;22.40;91.20
51007;DHT22;37034;47.886;-3.904;2023-08-17T07:06:52;22.40;91.20
51007;DHT22;37034;47.886;-3.904;2023-08-17T07:09:17;22.40;91.20
51007;DHT22;37034;47.886;-3.904;2023-08-17T07:11:44;22.50;91.20
51007;DHT22;37034;47.886;-3.904;2023-08-17T07:14:09;22.60;91.20
51007;DHT22;37034;47.886;-3.904;2023-08-17T07:16:35;22.60;91.30
51007;DHT22;37034;47.886;-3.904;2023-08-17T07:19:02;22.80;91.30
51007;DHT22;37034;47.886;-3.904;2023-08-17T07:21:27;22.80;91.20
51007;DHT22;37034;47.886;-3.904;2023-08-17T07:23:54;22.90;91.10
51007;DHT22;37034;47.886;-3.904;2023-08-17T07:26:20;22.90;91.10
51007;DHT22;37034;47.886;-3.904;2023-08-17T07:28:46;23.00;91.10
51007;DHT22;37034;47.886;-3.904;2023-08-17T07:31:12;23.00;91.10
51007;DHT22;37034;47.886;-3.904;2023-08-17T07:33:38;23.20;91.20
51007;DHT22;37034;47.886;-3.904;2023-08-17T07:36:04;23.20;91.20
51007;DHT22;37034;47.886;-3.904;2023-08-17T07:38:30;23.40;91.20
51007;DHT22;37034;47.886;-3.904;2023-08-17T07:40:56;23.40;90.90
51007;DHT22;37034;47.886;-3.904;2023-08-17T07:43:23;23.50;90.90
51007;DHT22;37034;47.886;-3.904;2023-08-17T07:45:56;23.50;91.00
51007;DHT22;37034;47.886;-3.904;2023-08-17T07:48:22;23.60;91.10
51007;DHT22;37034;47.886;-3.904;2023-08-17T07:50:51;23.70;91.10
51007;DHT22;37034;47.886;-3.904;2023-08-17T07:53:18;23.80;90.90
51007;DHT22;37034;47.886;-3.904;2023-08-17T07:55:44;23.90;90.90
51007;DHT22;37034;47.886;-3.904;2023-08-17T07:58:10;23.90;90.80
51007;DHT22;37034;47.886;-3.904;2023-08-17T08:00:36;23.90;90.30
51007;DHT22;37034;47.886;-3.904;2023-08-17T08:03:01;23.90;90.40
51007;DHT22;37034;47.886;-3.904;2023-08-17T08:05:27;24.00;90.60
51007;DHT22;37034;47.886;-3.904;2023-08-17T08:07:53;24.10;90.70
51007;DHT22;37034;47.886;-3.904;2023-08-17T08:10:19;24.10;90.70
51007;DHT22;37034;47.886;-3.904;2023-08-17T08:12:44;24.20;90.70
51007;DHT22;37034;47.886;-3.904;2023-08-17T08:15:10;24.20;90.70
51007;DHT22;37034;47.886;-3.904;2023-08-17T08:17:36;24.30;90.30
51007;DHT22;37034;47.886;-3.904;2023-08-17T08:20:02;24.40;90.50
51007;DHT22;37034;47.886;-3.904;2023-08-17T08:22:28;24.40;90.40
51007;DHT22;37034;47.886;-3.904;2023-08-17T08:24:54;24.50;90.10
51007;DHT22;37034;47.886;-3.904;2023-08-17T08:27:19;24.60;90.40
51007;DHT22;37034;47.886;-3.904;2023-08-17T08:29:45;24.70;90.70
51007;DHT22;37034;47.886;-3.904;2023-08-17T08:32:11;24.80;90.50
51007;DHT22;37034;47.886;-3.904;2023-08-17T08:34:36;24.90;90.70
51007;DHT22;37034;47.886;-3.904;2023-08-17T08:37:02;25.10;90.50
51007;DHT22;37034;47.886;-3.904;2023-08-17T08:39:28;25.20;90.50
51007;DHT22;37034;47.886;-3.904;2023-08-17T08:41:54;25.30;90.30
51007;DHT22;37034;47.886;-3.904;2023-08-17T08:44:19;25.30;90.30
51007;DHT22;37034;47.886;-3.904;2023-08-17T08:46:45;25.40;90.20
51007;DHT22;37034;47.886;-3.904;2023-08-17T08:49:12;25.50;90.40
51007;DHT22;37034;47.886;-3.904;2023-08-17T08:51:47;25.60;90.40
51007;DHT22;37034;47.886;-3.904;2023-08-17T08:54:14;25.70;90.50
51007;DHT22;37034;47.886;-3.904;2023-08-17T08:56:43;25.80;90.20
51007;DHT22;37034;47.886;-3.904;2023-08-17T08:59:10;25.90;90.20
51007;DHT22;37034;47.886;-3.904;2023-08-17T09:01:38;26.00;90.30
51007;DHT22;37034;47.886;-3.904;2023-08-17T09:04:04;26.10;89.90
51007;DHT22;37034;47.886;-3.904;2023-08-17T09:06:30;26.20;90.10
51007;DHT22;37034;47.886;-3.904;2023-08-17T09:08:58;26.30;90.10
51007;DHT22;37034;47.886;-3.904;2023-08-17T09:11:25;26.40;90.00
51007;DHT22;37034;47.886;-3.904;2023-08-17T09:13:52;26.40;88.80
51007;DHT22;37034;47.886;-3.904;2023-08-17T09:16:17;26.30;88.60
51007;DHT22;37034;47.886;-3.904;2023-08-17T09:18:43;26.30;89.10
51007;DHT22;37034;47.886;-3.904;2023-08-17T09:21:20;26.30;89.00
51007;DHT22;37034;47.886;-3.904;2023-08-17T09:23:53;26.30;88.70
51007;DHT22;37034;47.886;-3.904;2023-08-17T09:26:20;26.40;89.00
51007;DHT22;37034;47.886;-3.904;2023-08-17T09:28:50;26.40;88.90
51007;DHT22;37034;47.886;-3.904;2023-08-17T09:31:19;26.50;88.60
51007;DHT22;37034;47.886;-3.904;2023-08-17T09:33:49;26.50;88.20
51007;DHT22;37034;47.886;-3.904;2023-08-17T09:36:15;26.50;88.10
51007;DHT22;37034;47.886;-3.904;2023-08-17T09:38:48;26.60;88.40
51007;DHT22;37034;47.886;-3.904;2023-08-17T09:41:14;26.60;88.00
51007;DHT22;37034;47.886;-3.904;2023-08-17T09:43:41;26.70;87.70
51007;DHT22;37034;47.886;-3.904;2023-08-17T09:46:06;26.70;87.90
51007;DHT22;37034;47.886;-3.904;2023-08-17T09:48:33;26.70;87.50
51007;DHT22;37034;47.886;-3.904;2023-08-17T09:50:59;26.70;87.00
51007;DHT22;37034;47.886;-3.904;2023-08-17T09:53:26;26.70;87.30
51007;DHT22;37034;47.886;-3.904;2023-08-17T09:55:53;26.70;86.80
51007;DHT22;37034;47.886;-3.904;2023-08-17T09:58:20;26.80;87.50
51007;DHT22;37034;47.886;-3.904;2023-08-17T10:00:47;26.90;87.50
51007;DHT22;37034;47.886;-3.904;2023-08-17T10:03:15;26.90;86.90
51007;DHT22;37034;47.886;-3.904;2023-08-17T10:05:43;27.00;86.70
51007;DHT22;37034;47.886;-3.904;2023-08-17T10:08:11;27.00;86.70
51007;DHT22;37034;47.886;-3.904;2023-08-17T10:10:40;27.00;86.50
51007;DHT22;37034;47.886;-3.904;2023-08-17T10:13:16;27.10;85.90
51007;DHT22;37034;47.886;-3.904;2023-08-17T10:15:55;27.10;86.20
51007;DHT22;37034;47.886;-3.904;2023-08-17T10:18:41;27.10;86.80
51007;DHT22;37034;47.886;-3.904;2023-08-17T10:21:26;27.20;86.60
51007;DHT22;37034;47.886;-3.904;2023-08-17T10:23:53;27.30;85.70
51007;DHT22;37034;47.886;-3.904;2023-08-17T10:26:21;27.30;85.80
51007;DHT22;37034;47.886;-3.904;2023-08-17T10:28:47;27.30;86.00
51007;DHT22;37034;47.886;-3.904;2023-08-17T10:31:14;27.30;85.80
51007;DHT22;37034;47.886;-3.904;2023-08-17T10:33:39;27.30;85.40
51007;DHT22;37034;47.886;-3.904;2023-08-17T10:36:07;27.40;84.90
51007;DHT22;37034;47.886;-3.904;2023-08-17T10:38:33;27.40;85.40
51007;DHT22;37034;47.886;-3.904;2023-08-17T10:41:10;27.40;85.50
51007;DHT22;37034;47.886;-3.904;2023-08-17T10:46:18;27.30;84.90
51007;DHT22;37034;47.886;-3.904;2023-08-17T10:48:44;27.30;85.00
51007;DHT22;37034;47.886;-3.904;2023-08-17T10:51:10;27.30;84.90
51007;DHT22;37034;47.886;-3.904;2023-08-17T10:53:40;27.30;85.10
51007;DHT22;37034;47.886;-3.904;2023-08-17T10:56:13;27.40;85.90
51007;DHT22;37034;47.886;-3.904;2023-08-17T10:58:39;27.50;85.60
51007;DHT22;37034;47.886;-3.904;2023-08-17T11:01:06;27.50;84.70
51007;DHT22;37034;47.886;-3.904;2023-08-17T11:03:32;27.60;85.30
51007;DHT22;37034;47.886;-3.904;2023-08-17T11:06:14;27.60;84.80
51007;DHT22;37034;47.886;-3.904;2023-08-17T11:08:51;27.50;84.50
51007;DHT22;37034;47.886;-3.904;2023-08-17T11:11:20;27.60;84.40
51007;DHT22;37034;47.886;-3.904;2023-08-17T11:13:46;27.60;84.40
51007;DHT22;37034;47.886;-3.904;2023-08-17T11:16:16;27.60;84.90
51007;DHT22;37034;47.886;-3.904;2023-08-17T11:18:42;27.60;84.80
51007;DHT22;37034;47.886;-3.904;2023-08-17T11:21:09;27.70;84.20
51007;DHT22;37034;47.886;-3.904;2023-08-17T11:23:37;27.60;84.10
51007;DHT22;37034;47.886;-3.904;2023-08-17T11:26:03;27.60;84.20
51007;DHT22;37034;47.886;-3.904;2023-08-17T11:28:30;27.60;84.20
51007;DHT22;37034;47.886;-3.904;2023-08-17T11:31:03;27.60;84.50
51007;DHT22;37034;47.886;-3.904;2023-08-17T11:33:30;27.70;84.30
51007;DHT22;37034;47.886;-3.904;2023-08-17T11:36:00;27.80;84.30
51007;DHT22;37034;47.886;-3.904;2023-08-17T11:38:30;27.80;84.10
51007;DHT22;37034;47.886;-3.904;2023-08-17T11:40:58;27.80;83.80
51007;DHT22;37034;47.886;-3.904;2023-08-17T11:43:24;27.80;83.40
51007;DHT22;37034;47.886;-3.904;2023-08-17T11:45:51;27.70;83.40
51007;DHT22;37034;47.886;-3.904;2023-08-17T11:48:19;27.70;83.00
51007;DHT22;37034;47.886;-3.904;2023-08-17T11:50:44;27.70;83.70
51007;DHT22;37034;47.886;-3.904;2023-08-17T11:53:10;27.70;84.00
51007;DHT22;37034;47.886;-3.904;2023-08-17T11:55:36;27.80;84.20
51007;DHT22;37034;47.886;-3.904;2023-08-17T11:58:03;27.90;84.00
51007;DHT22;37034;47.886;-3.904;2023-08-17T12:00:34;28.00;83.80
51007;DHT22;37034;47.886;-3.904;2023-08-17T12:03:00;28.00;83.60
51007;DHT22;37034;47.886;-3.904;2023-08-17T12:05:26;28.00;83.30
51007;DHT22;37034;47.886;-3.904;2023-08-17T12:07:55;28.00;83.40
51007;DHT22;37034;47.886;-3.904;2023-08-17T12:10:21;28.00;82.90
51007;DHT22;37034;47.886;-3.904;2023-08-17T12:12:48;28.00;82.70
51007;DHT22;37034;47.886;-3.904;2023-08-17T12:15:16;28.00;83.10
51007;DHT22;37034;47.886;-3.904;2023-08-17T12:17:49;28.00;83.70
51007;DHT22;37034;47.886;-3.904;2023-08-17T12:20:19;28.10;83.10
51007;DHT22;37034;47.886;-3.904;2023-08-17T12:22:46;28.10;82.30
51007;DHT22;37034;47.886;-3.904;2023-08-17T12:25:12;28.10;82.90
51007;DHT22;37034;47.886;-3.904;2023-08-17T12:27:37;28.10;82.40
51007;DHT22;37034;47.886;-3.904;2023-08-17T12:30:04;28.00;82.20
51007;DHT22;37034;47.886;-3.904;2023-08-17T12:32:29;28.10;82.90
51007;DHT22;37034;47.886;-3.904;2023-08-17T12:34:55;28.10;82.30
51007;DHT22;37034;47.886;-3.904;2023-08-17T12:37:21;28.20;82.20
51007;DHT22;37034;47.886;-3.904;2023-08-17T12:39:47;28.10;82.10
51007;DHT22;37034;47.886;-3.904;2023-08-17T12:42:13;28.20;82.10
51007;DHT22;37034;47.886;-3.904;2023-08-17T12:44:40;28.30;82.80
51007;DHT22;37034;47.886;-3.904;2023-08-17T12:47:06;28.30;83.10
51007;DHT22;37034;47.886;-3.904;2023-08-17T12:49:31;28.40;82.90
51007;DHT22;37034;47.886;-3.904;2023-08-17T12:51:57;28.50;82.70
51007;DHT22;37034;47.886;-3.904;2023-08-17T12:54:23;28.60;82.20
51007;DHT22;37034;47.886;-3.904;2023-08-17T12:56:48;28.60;82.50
51007;DHT22;37034;47.886;-3.904;2023-08-17T12:59:14;28.60;82.60
51007;DHT22;37034;47.886;-3.904;2023-08-17T13:01:40;28.70;82.40
51007;DHT22;37034;47.886;-3.904;2023-08-17T13:04:06;28.80;82.10
51007;DHT22;37034;47.886;-3.904;2023-08-17T13:06:31;28.80;82.10
51007;DHT22;37034;47.886;-3.904;2023-08-17T13:08:57;28.80;82.10
51007;DHT22;37034;47.886;-3.904;2023-08-17T13:11:23;28.80;82.40
51007;DHT22;37034;47.886;-3.904;2023-08-17T13:13:48;28.90;82.30
51007;DHT22;37034;47.886;-3.904;2023-08-17T13:16:14;29.00;82.00
51007;DHT22;37034;47.886;-3.904;2023-08-17T13:18:40;29.00;82.30
51007;DHT22;37034;47.886;-3.904;2023-08-17T13:21:05;29.10;81.60
51007;DHT22;37034;47.886;-3.904;2023-08-17T13:23:31;29.10;81.50
51007;DHT22;37034;47.886;-3.904;2023-08-17T13:25:58;29.10;81.50
51007;DHT22;37034;47.886;-3.904;2023-08-17T13:28:23;29.10;81.60
51007;DHT22;37034;47.886;-3.904;2023-08-17T13:30:49;29.20;80.80
51007;DHT22;37034;47.886;-3.904;2023-08-17T13:33:15;29.20;81.10
51007;DHT22;37034;47.886;-3.904;2023-08-17T13:35:42;29.20;81.30
51007;DHT22;37034;47.886;-3.904;2023-08-17T13:38:07;29.20;81.30
51007;DHT22;37034;47.886;-3.904;2023-08-17T13:40:33;29.30;80.90
51007;DHT22;37034;47.886;-3.904;2023-08-17T13:42:59;29.30;81.30
51007;DHT22;37034;47.886;-3.904;2023-08-17T13:45:25;29.40;80.40
51007;DHT22;37034;47.886;-3.904;2023-08-17T13:47:51;29.40;80.80
51007;DHT22;37034;47.886;-3.904;2023-08-17T13:50:17;29.50;80.50
51007;DHT22;37034;47.886;-3.904;2023-08-17T13:52:44;29.50;81.00
51007;DHT22;37034;47.886;-3.904;2023-08-17T13:55:10;29.50;80.30
51007;DHT22;37034;47.886;-3.904;2023-08-17T13:57:35;29.40;80.30
51007;DHT22;37034;47.886;-3.904;2023-08-17T14:00:01;29.40;79.40
51007;DHT22;37034;47.886;-3.904;2023-08-17T14:02:29;29.40;80.80
51007;DHT22;37034;47.886;-3.904;2023-08-17T14:04:55;29.40;80.10
51007;DHT22;37034;47.886;-3.904;2023-08-17T14:07:20;29.30;79.20
51007;DHT22;37034;47.886;-3.904;2023-08-17T14:09:46;29.30;79.50
51007;DHT22;37034;47.886;-3.904;2023-08-17T14:12:12;29.20;79.70
51007;DHT22;37034;47.886;-3.904;2023-08-17T14:14:37;29.10;79.50
51007;DHT22;37034;47.886;-3.904;2023-08-17T14:17:03;29.00;79.90
51007;DHT22;37034;47.886;-3.904;2023-08-17T14:19:28;29.00;80.00
51007;DHT22;37034;47.886;-3.904;2023-08-17T14:21:54;28.90;79.90
51007;DHT22;37034;47.886;-3.904;2023-08-17T14:24:20;28.90;79.90
51007;DHT22;37034;47.886;-3.904;2023-08-17T14:26:45;28.90;80.20
51007;DHT22;37034;47.886;-3.904;2023-08-17T14:29:11;29.00;80.10
51007;DHT22;37034;47.886;-3.904;2023-08-17T14:31:36;29.00;80.40
51007;DHT22;37034;47.886;-3.904;2023-08-17T14:34:02;29.00;80.40
51007;DHT22;37034;47.886;-3.904;2023-08-17T14:36:28;29.20;80.80
51007;DHT22;37034;47.886;-3.904;2023-08-17T14:38:53;29.20;79.60
51007;DHT22;37034;47.886;-3.904;2023-08-17T14:41:19;29.20;80.00
51007;DHT22;37034;47.886;-3.904;2023-08-17T14:43:45;29.20;79.60
51007;DHT22;37034;47.886;-3.904;2023-08-17T14:46:10;29.10;79.90
51007;DHT22;37034;47.886;-3.904;2023-08-17T14:48:36;29.10;79.80
51007;DHT22;37034;47.886;-3.904;2023-08-17T14:51:02;29.00;80.10
51007;DHT22;37034;47.886;-3.904;2023-08-17T14:53:28;29.00;80.10
51007;DHT22;37034;47.886;-3.904;2023-08-17T14:55:54;29.10;79.50
51007;DHT22;37034;47.886;-3.904;2023-08-17T14:58:20;29.00;79.50
51007;DHT22;37034;47.886;-3.904;2023-08-17T15:00:46;29.00;79.00
51007;DHT22;37034;47.886;-3.904;2023-08-17T15:03:11;29.00;79.30
51007;DHT22;37034;47.886;-3.904;2023-08-17T15:05:37;29.00;79.40
51007;DHT22;37034;47.886;-3.904;2023-08-17T15:08:03;29.00;79.20
51007;DHT22;37034;47.886;-3.904;2023-08-17T15:10:29;28.80;78.90
51007;DHT22;37034;47.886;-3.904;2023-08-17T15:12:55;28.70;79.10
51007;DHT22;37034;47.886;-3.904;2023-08-17T15:15:20;28.70;80.00
51007;DHT22;37034;47.886;-3.904;2023-08-17T15:17:46;28.70;80.10